Time;durP1;ratioP1;P1;durP2;ratioP2;P2;SDS_P1;SDS_P2;PMS_P1;PMS_P2;Temp;Humidity;BMP_temperature;BMP_pressure;BME280_temperature;BME280_humidity;BME280_pressure;Samples;Min_cycle;Max_cycle;Signal;HPM_P1;HPM_P2
2023/08/07 00:00:23;;;;;;;;;;;;;;;13.61;100.00;101016.69;5046928;28;19929;-85
2023/08/07 00:03:08;;;;;;;;;;;;;;;13.63;100.00;101011.28;5047570;28;19921;-86
2023/08/07 00:05:55;;;;;;;;;;;;;;;13.63;100.00;101021.94;5029934;28;19921;-82
2023/08/07 00:08:41;;;;;;;;;;;;;;;13.63;100.00;101016.59;5019121;28;19920;-90
2023/08/07 00:11:33;;;;;;;;;;;;;;;13.61;100.00;101011.38;5031796;28;19939;-89
2023/08/07 00:14:19;;;;;;;;;;;;;;;13.59;100.00;101010.59;4990077;28;19929;-86
2023/08/07 00:17:05;;;;;;;;;;;;;;;13.55;100.00;101009.91;4989593;28;19922;-83
2023/08/07 00:19:51;;;;;;;;;;;;;;;13.56;100.00;101006.31;5003378;28;20328;-85
2023/08/07 00:22:42;;;;;;;;;;;;;;;13.54;100.00;101002.88;4990099;28;19943;-84
2023/08/07 00:25:31;;;;;;;;;;;;;;;13.55;100.00;101007.25;4975095;28;19936;-90
2023/08/07 00:28:16;;;;;;;;;;;;;;;13.58;100.00;101003.56;5003336;28;19944;-85
2023/08/07 00:31:02;;;;;;;;;;;;;;;13.59;100.00;101005.28;5001623;28;20367;-89
2023/08/07 00:33:53;;;;;;;;;;;;;;;13.59;100.00;101007.94;4992939;28;20439;-87
2023/08/07 00:36:42;;;;;;;;;;;;;;;13.60;100.00;101007.00;4982238;28;19950;-88
2023/08/07 00:39:27;;;;;;;;;;;;;;;13.59;100.00;101005.28;4982733;28;19930;-88
2023/08/07 00:42:16;;;;;;;;;;;;;;;13.58;100.00;101006.22;4984663;28;19928;-89
2023/08/07 00:45:01;;;;;;;;;;;;;;;13.58;100.00;101008.88;4996440;28;19928;-87
2023/08/07 00:47:49;;;;;;;;;;;;;;;13.59;100.00;101007.94;5013280;28;19925;-89
2023/08/07 00:50:36;;;;;;;;;;;;;;;13.59;100.00;101005.28;5011174;28;19920;-83
2023/08/07 00:53:22;;;;;;;;;;;;;;;13.60;100.00;101007.00;5040520;28;20046;-89
2023/08/07 00:56:08;;;;;;;;;;;;;;;13.60;100.00;101007.00;5018244;28;19928;-89
2023/08/07 00:58:54;;;;;;;;;;;;;;;13.58;100.00;101000.91;5041188;28;19928;-91
2023/08/07 01:01:39;;;;;;;;;;;;;;;13.58;100.00;101004.41;5016294;28;20039;-84
2023/08/07 01:04:25;;;;;;;;;;;;;;;13.59;100.00;101010.59;5015084;28;20387;-88
2023/08/07 01:07:16;;;;;;;;;;;;;;;13.59;100.00;101005.28;5016192;28;19932;-90
2023/08/07 01:10:03;;;;;;;;;;;;;;;13.58;100.00;101007.06;5016243;28;19933;-89
2023/08/07 01:12:52;;;;;;;;;;;;;;;13.57;100.00;101002.69;5026533;28;19916;-87
2023/08/07 01:15:38;;;;;;;;;;;;;;;13.54;100.00;101002.88;5008631;28;19928;-88
2023/08/07 01:18:23;;;;;;;;;;;;;;;13.50;100.00;100993.34;5024935;28;19925;-90
2023/08/07 01:21:19;;;;;;;;;;;;;;;13.47;100.00;100990.88;5011223;28;20634;-87
2023/08/07 01:24:09;;;;;;;;;;;;;;;13.44;100.00;100991.00;5008051;28;19921;-88
2023/08/07 01:26:55;;;;;;;;;;;;;;;13.42;100.00;100993.72;5008367;28;19928;-90
2023/08/07 01:29:54;;;;;;;;;;;;;;;13.41;100.00;100989.34;5027060;28;20451;-88
2023/08/07 01:33:12;;;;;;;;;;;;;;;13.37;100.00;100987.81;5026651;28;20256;-89
2023/08/07 01:36:02;;;;;;;;;;;;;;;13.35;100.00;100987.03;5001638;28;20494;-89
2023/08/07 01:38:47;;;;;;;;;;;;;;;13.34;100.00;100990.63;5012954;28;19921;-88
2023/08/07 01:41:33;;;;;;;;;;;;;;;13.34;100.00;100989.78;5024888;28;20371;-87
2023/08/07 01:44:19;;;;;;;;;;;;;;;13.31;100.00;100989.00;5021297;28;19924;-87
2023/08/07 01:47:05;;;;;;;;;;;;;;;13.31;100.00;100986.34;5010675;28;20319;-89
2023/08/07 01:49:51;;;;;;;;;;;;;;;13.31;100.00;100983.69;5010461;28;19920;-90
2023/08/07 01:52:39;;;;;;;;;;;;;;;13.28;100.00;100985.66;5027273;28;20907;-88
2023/08/07 01:55:25;;;;;;;;;;;;;;;13.28;100.00;100980.34;5027823;28;20400;-88
2023/08/07 01:58:12;;;;;;;;;;;;;;;13.26;100.00;100983.09;5014969;28;19968;-89
2023/08/07 02:00:57;;;;;;;;;;;;;;;13.25;100.00;100996.47;5016641;28;19948;-88
2023/08/07 02:03:43;;;;;;;;;;;;;;;13.25;100.00;100996.47;5013978;28;20085;-89
2023/08/07 02:06:29;;;;;;;;;;;;;;;13.22;100.00;100996.63;5012959;28;19924;-88
2023/08/07 02:09:15;;;;;;;;;;;;;;;13.21;100.00;100994.91;5008715;28;20172;-90
2023/08/07 02:12:01;;;;;;;;;;;;;;;13.18;100.00;101001.25;5016420;28;19916;-89
2023/08/07 02:14:47;;;;;;;;;;;;;;;13.14;100.00;101000.53;5028390;28;19932;-91
2023/08/07 02:17:32;;;;;;;;;;;;;;;13.11;100.00;101011.34;5013653;28;19928;-88
2023/08/07 02:20:18;;;;;;;;;;;;;;;13.09;100.00;101005.28;5026933;28;19920;-86
2023/08/07 02:23:04;;;;;;;;;;;;;;;13.06;100.00;101013.41;5020259;28;20007;-88
2023/08/07 02:25:51;;;;;;;;;;;;;;;13.03;100.00;101010.91;5009624;28;19925;-88
2023/08/07 02:28:36;;;;;;;;;;;;;;;13.02;100.00;101011.88;5023871;28;19928;-89
2023/08/07 02:31:22;;;;;;;;;;;;;;;12.99;100.00;101012.88;5031183;28;19927;-88
2023/08/07 02:34:08;;;;;;;;;;;;;;;13.00;100.00;101013.72;5026380;28;19927;-89
2023/08/07 02:36:53;;;;;;;;;;;;;;;13.01;100.00;101015.44;5015600;28;20367;-89
2023/08/07 02:39:40;;;;;;;;;;;;;;;13.02;100.00;101019.84;5011946;28;19932;-89
2023/08/07 02:42:26;;;;;;;;;;;;;;;13.00;100.00;101017.25;5026276;28;20166;-87
2023/08/07 02:45:12;;;;;;;;;;;;;;;13.01;100.00;101037.56;5013473;28;19964;-89
2023/08/07 02:47:57;;;;;;;;;;;;;;;13.01;100.00;101032.25;5023925;28;19920;-92
2023/08/07 02:50:43;;;;;;;;;;;;;;;12.97;100.00;101038.66;5024563;28;20775;-93
2023/08/07 02:53:31;;;;;;;;;;;;;;;12.98;100.00;101042.19;5049241;28;19936;-90
2023/08/07 02:56:17;;;;;;;;;;;;;;;13.05;100.00;101043.56;5036156;28;20054;-92
2023/08/07 02:59:02;;;;;;;;;;;;;;;13.12;100.00;101044.97;5036441;28;19958;-95
2023/08/07 03:01:49;;;;;;;;;;;;;;;13.18;100.00;101049.97;5049956;28;19927;-92
2023/08/07 03:04:38;;;;;;;;;;;;;;;13.25;100.00;101049.63;5051223;28;19946;-93
2023/08/07 03:07:25;;;;;;;;;;;;;;;13.27;100.00;101045.97;5047794;28;19931;-91
2023/08/07 03:10:11;;;;;;;;;;;;;;;13.30;100.00;101044.94;5021960;28;19925;-92
2023/08/07 03:13:09;;;;;;;;;;;;;;;13.32;100.00;101037.72;5028957;28;20007;-89
2023/08/07 03:16:05;;;;;;;;;;;;;;;13.28;100.00;101037.03;5014906;28;20141;-94
2023/08/07 03:18:51;;;;;;;;;;;;;;;13.26;100.00;101051.34;5032137;28;21715;-86
2023/08/07 03:21:37;;;;;;;;;;;;;;;13.20;100.00;101039.25;4988005;28;20667;-85
2023/08/07 03:24:23;;;;;;;;;;;;;;;13.16;100.00;101035.91;4978431;28;20233;-95
2023/08/07 03:27:08;;;;;;;;;;;;;;;13.13;100.00;101037.88;4990379;28;20157;-91
2023/08/07 03:29:54;;;;;;;;;;;;;;;13.11;100.00;101034.41;4992396;28;19922;-92
2023/08/07 03:32:41;;;;;;;;;;;;;;;13.10;100.00;101036.22;4991480;28;19921;-89
2023/08/07 03:35:27;;;;;;;;;;;;;;;13.08;100.00;101037.25;4990488;28;19930;-91
2023/08/07 03:38:12;;;;;;;;;;;;;;;13.07;100.00;101033.72;4989142;28;19928;-88
2023/08/07 03:40:58;;;;;;;;;;;;;;;13.07;100.00;101046.16;4986022;28;19936;-93
2023/08/07 03:43:44;;;;;;;;;;;;;;;13.07;100.00;101051.47;4989392;28;19949;-93
2023/08/07 03:46:32;;;;;;;;;;;;;;;13.06;100.00;101049.75;4987053;28;19948;-89
2023/08/07 03:49:22;;;;;;;;;;;;;;;13.07;100.00;101047.00;4970670;28;19933;-90
2023/08/07 03:52:08;;;;;;;;;;;;;;;13.07;100.00;101057.63;5000881;28;19974;-86
2023/08/07 03:54:54;;;;;;;;;;;;;;;13.08;100.00;101056.69;5033097;28;19932;-90
2023/08/07 03:57:39;;;;;;;;;;;;;;;13.09;100.00;101062.88;5049789;28;19992;-90
2023/08/07 04:00:25;;;;;;;;;;;;;;;13.10;100.00;101065.47;5049886;28;19954;-88
2023/08/07 04:03:19;;;;;;;;;;;;;;;13.09;100.00;101071.72;5048250;28;19987;-95
2023/08/07 04:06:05;;;;;;;;;;;;;;;13.07;100.00;101062.13;5031651;28;19925;-86
2023/08/07 04:08:53;;;;;;;;;;;;;;;13.04;100.00;101057.81;5020792;28;20013;-92
2023/08/07 04:11:40;;;;;;;;;;;;;;;12.99;100.00;101063.38;5032120;28;20019;-92
2023/08/07 04:14:25;;;;;;;;;;;;;;;12.96;100.00;101058.19;5018148;28;19916;-90
2023/08/07 04:17:13;;;;;;;;;;;;;;;12.95;100.00;101055.63;5050139;28;19966;-91
2023/08/07 04:19:59;;;;;;;;;;;;;;;12.93;100.00;101065.47;5017388;28;20345;-92
2023/08/07 04:22:47;;;;;;;;;;;;;;;12.92;100.00;101069.94;5047541;28;20016;-92
2023/08/07 04:25:33;;;;;;;;;;;;;;;12.89;100.00;101078.06;5035008;28;19920;-91
2023/08/07 04:28:28;;;;;;;;;;;;;;;12.89;100.00;101086.91;5034583;28;19920;-85
2023/08/07 04:31:19;;;;;;;;;;;;;;;12.90;100.00;101080.66;5025657;28;19924;-88
2023/08/07 04:34:05;;;;;;;;;;;;;;;12.88;100.00;101077.22;5022184;28;19931;-92
2023/08/07 04:36:53;;;;;;;;;;;;;;;12.88;100.00;101081.66;5038391;28;19916;-90
2023/08/07 04:39:42;;;;;;;;;;;;;;;12.85;100.00;101085.34;5032172;28;20019;-92
2023/08/07 04:42:27;;;;;;;;;;;;;;;12.85;100.00;101095.13;5022772;28;19991;-91
2023/08/07 04:45:13;;;;;;;;;;;;;;;12.87;100.00;101087.91;5019510;28;20315;-92
2023/08/07 04:48:01;;;;;;;;;;;;;;;12.88;100.00;101090.50;5034552;28;19925;-85
2023/08/07 04:50:47;;;;;;;;;;;;;;;12.88;100.00;101098.47;5031526;28;19923;-89
2023/08/07 04:53:32;;;;;;;;;;;;;;;12.88;100.00;101097.59;5046985;28;20016;-93
2023/08/07 04:56:18;;;;;;;;;;;;;;;12.85;100.00;101098.63;5046264;28;19932;-92
2023/08/07 04:59:06;;;;;;;;;;;;;;;12.83;100.00;101097.84;5032935;28;19928;-91
2023/08/07 05:01:51;;;;;;;;;;;;;;;12.81;100.00;101086.41;5018024;28;20090;-92
2023/08/07 05:04:37;;;;;;;;;;;;;;;12.81;100.00;101094.38;5019685;28;19969;-90
2023/08/07 05:07:23;;;;;;;;;;;;;;;12.81;100.00;101099.69;5032903;28;19928;-93
2023/08/07 05:10:09;;;;;;;;;;;;;;;12.82;100.00;101106.75;5018566;28;19944;-90
2023/08/07 05:12:58;;;;;;;;;;;;;;;12.86;100.00;101113.63;5032873;28;19924;-85
2023/08/07 05:15:43;;;;;;;;;;;;;;;12.90;100.00;101114.31;5021052;28;20309;-93
2023/08/07 05:18:29;;;;;;;;;;;;;;;12.94;100.00;101112.38;5019129;28;19996;-91
2023/08/07 05:21:14;;;;;;;;;;;;;;;12.96;100.00;101119.31;5028218;28;20453;-86
2023/08/07 05:24:00;;;;;;;;;;;;;;;13.02;100.00;101119.00;5044712;28;19924;-88
2023/08/07 05:26:46;;;;;;;;;;;;;;;13.05;100.00;101128.63;5046605;28;19929;-90
2023/08/07 05:29:31;;;;;;;;;;;;;;;13.08;100.00;101133.78;5016850;28;20431;-88
2023/08/07 05:32:17;;;;;;;;;;;;;;;13.11;100.00;101132.75;5015541;28;19936;-85
2023/08/07 05:35:06;;;;;;;;;;;;;;;13.11;100.00;101138.06;5007285;28;19992;-91
2023/08/07 05:37:52;;;;;;;;;;;;;;;13.11;100.00;101144.25;5024720;28;19921;-84
2023/08/07 05:40:38;;;;;;;;;;;;;;;13.14;100.00;101157.38;5038627;28;19924;-83
2023/08/07 05:43:26;;;;;;;;;;;;;;;13.17;100.00;101157.25;5038963;28;21757;-86
2023/08/07 05:46:12;;;;;;;;;;;;;;;13.18;100.00;101156.28;5011737;28;19925;-86
2023/08/07 05:48:57;;;;;;;;;;;;;;;13.21;100.00;101155.28;5040157;28;20252;-88
2023/08/07 05:51:49;;;;;;;;;;;;;;;13.23;100.00;101150.75;5011153;28;20598;-87
2023/08/07 05:54:34;;;;;;;;;;;;;;;13.28;100.00;101155.81;5014576;28;19925;-86
2023/08/07 05:57:20;;;;;;;;;;;;;;;13.31;100.00;101163.66;5011295;28;19978;-87
2023/08/07 06:00:07;;;;;;;;;;;;;;;13.34;100.00;101167.94;5020512;28;21260;-86
2023/08/07 06:02:53;;;;;;;;;;;;;;;13.32;100.00;101162.69;5025267;28;19975;-84
2023/08/07 06:05:40;;;;;;;;;;;;;;;13.29;100.00;101174.34;5042574;28;19956;-84
2023/08/07 06:08:25;;;;;;;;;;;;;;;13.26;100.00;101171.00;5027503;28;19928;-84
2023/08/07 06:11:11;;;;;;;;;;;;;;;13.24;100.00;101180.84;5030800;28;20412;-84
2023/08/07 06:13:57;;;;;;;;;;;;;;;13.24;100.00;101186.16;5041912;28;20785;-85
2023/08/07 06:16:43;;;;;;;;;;;;;;;13.24;100.00;101196.81;5026906;28;19933;-84
2023/08/07 06:19:28;;;;;;;;;;;;;;;13.24;100.00;101194.16;5045194;28;20295;-86
2023/08/07 06:22:14;;;;;;;;;;;;;;;13.23;100.00;101200.41;5038509;28;19960;-84
2023/08/07 06:25:00;;;;;;;;;;;;;;;13.23;100.00;101190.63;5029681;28;19974;-84
2023/08/07 06:27:46;;;;;;;;;;;;;;;13.28;100.00;101204.53;5027207;28;20012;-90
2023/08/07 06:30:31;;;;;;;;;;;;;;;13.32;100.00;101194.59;5016728;28;19952;-86
2023/08/07 06:33:17;;;;;;;;;;;;;;;13.38;100.00;101194.28;5041423;28;19943;-85
2023/08/07 06:36:03;;;;;;;;;;;;;;;13.44;100.00;101204.63;5027799;28;19925;-85
2023/08/07 06:38:49;;;;;;;;;;;;;;;13.51;100.00;101199.00;5027324;28;20397;-86
2023/08/07 06:41:35;;;;;;;;;;;;;;;13.57;100.00;101209.34;5028681;28;19917;-88
2023/08/07 06:44:21;;;;;;;;;;;;;;;13.61;100.00;101216.19;5027743;28;19925;-88
2023/08/07 06:47:07;;;;;;;;;;;;;;;13.65;100.00;101227.53;5040216;28;19935;-85
2023/08/07 06:49:52;;;;;;;;;;;;;;;13.70;100.00;101220.19;5015266;28;19932;-84
2023/08/07 06:52:38;;;;;;;;;;;;;;;13.74;100.00;101226.19;5030342;28;19960;-86
2023/08/07 06:55:24;;;;;;;;;;;;;;;13.73;100.00;101267.06;5029200;28;20455;-87
2023/08/07 06:58:09;;;;;;;;;;;;;;;13.34;100.00;101261.84;5043215;28;19931;-85
2023/08/07 07:00:55;;;;;;;;;;;;;;;12.93;100.00;101262.13;5040737;28;20026;-86
2023/08/07 07:03:41;;;;;;;;;;;;;;;12.67;100.00;101251.81;5026567;28;20391;-85
2023/08/07 07:06:26;;;;;;;;;;;;;;;12.57;100.00;101240.78;5029114;28;20912;-81
2023/08/07 07:09:16;;;;;;;;;;;;;;;12.55;100.00;101252.41;5045793;28;20368;-82
2023/08/07 07:12:04;;;;;;;;;;;;;;;12.57;100.00;101250.53;5046996;28;19978;-82
2023/08/07 07:14:49;;;;;;;;;;;;;;;12.59;100.00;101256.66;5036193;28;20028;-81
2023/08/07 07:17:35;;;;;;;;;;;;;;;12.65;100.00;101250.16;5038079;28;20083;-84
2023/08/07 07:20:21;;;;;;;;;;;;;;;12.84;100.00;101251.00;5024900;28;19928;-79
2023/08/07 07:23:06;;;;;;;;;;;;;;;13.06;100.00;101252.59;5038960;28;19937;-85
2023/08/07 07:25:55;;;;;;;;;;;;;;;13.32;100.00;101250.44;5040215;28;19925;-86
2023/08/07 07:28:41;;;;;;;;;;;;;;;13.60;100.00;101253.50;5039702;28;19921;-80
2023/08/07 07:31:26;;;;;;;;;;;;;;;13.71;100.00;101260.00;5034508;28;19932;-79
2023/08/07 07:34:12;;;;;;;;;;;;;;;13.77;100.00;101258.81;5034675;28;20474;-81
2023/08/07 07:36:58;;;;;;;;;;;;;;;13.84;100.00;101275.34;5019681;28;20207;-83
2023/08/07 07:39:43;;;;;;;;;;;;;;;13.75;100.00;101307.72;5037949;28;19994;-81
2023/08/07 07:42:29;;;;;;;;;;;;;;;13.36;100.00;101297.22;5021638;28;19916;-84
2023/08/07 07:45:15;;;;;;;;;;;;;;;13.01;100.00;101306.00;5024191;28;19936;-83
2023/08/07 07:48:00;;;;;;;;;;;;;;;12.85;100.00;101292.59;5006692;28;19991;-81
2023/08/07 07:50:47;;;;;;;;;;;;;;;12.74;100.00;101287.78;5037142;28;19991;-83
2023/08/07 07:53:33;;;;;;;;;;;;;;;12.69;100.00;101289.78;5034526;28;19929;-82
2023/08/07 07:56:19;;;;;;;;;;;;;;;12.71;100.00;101295.91;5032863;28;19952;-82
2023/08/07 07:59:04;;;;;;;;;;;;;;;12.71;100.00;101279.97;5019715;28;19982;-82
2023/08/07 08:01:51;;;;;;;;;;;;;;;12.78;100.00;101280.53;5004782;28;19932;-81
2023/08/07 08:04:36;;;;;;;;;;;;;;;12.86;100.00;101288.97;5016865;28;19916;-83
2023/08/07 08:07:26;;;;;;;;;;;;;;;12.98;100.00;101292.88;5032174;28;20491;-81
2023/08/07 08:10:15;;;;;;;;;;;;;;;13.27;100.00;101292.34;4978526;28;19926;-82
2023/08/07 08:13:01;;;;;;;;;;;;;;;13.57;100.00;101291.78;4981464;28;19921;-82
2023/08/07 08:15:48;;;;;;;;;;;;;;;13.90;100.00;101298.09;4989518;28;19921;-80
2023/08/07 08:18:34;;;;;;;;;;;;;;;14.11;100.00;101288.13;4981470;28;22223;-77
2023/08/07 08:21:20;;;;;;;;;;;;;;;14.20;100.00;101308.06;4980068;28;19921;-83
2023/08/07 08:24:05;;;;;;;;;;;;;;;14.19;100.00;101311.66;4994692;28;19925;-85
2023/08/07 08:26:51;;;;;;;;;;;;;;;14.32;100.00;101327.88;4981327;28;19929;-83
2023/08/07 08:29:37;;;;;;;;;;;;;;;14.47;100.00;101313.72;4996046;28;19932;-85
2023/08/07 08:32:22;;;;;;;;;;;;;;;14.56;100.00;101309.69;4984134;28;20005;-81
2023/08/07 08:35:08;;;;;;;;;;;;;;;14.66;100.00;101315.38;4993759;28;20179;-81
2023/08/07 08:37:54;;;;;;;;;;;;;;;14.62;100.00;101329.81;4984470;28;19932;-80
2023/08/07 08:40:40;;;;;;;;;;;;;;;14.52;100.00;101330.31;5013935;28;19928;-83
2023/08/07 08:43:26;;;;;;;;;;;;;;;14.51;100.00;101322.41;5019723;28;20363;-83
2023/08/07 08:46:14;;;;;;;;;;;;;;;14.57;100.00;101316.75;5033858;28;19925;-84
2023/08/07 08:48:59;;;;;;;;;;;;;;;14.71;100.00;101328.44;5005357;28;20055;-86
2023/08/07 08:51:45;;;;;;;;;;;;;;;14.67;100.00;101341.06;5007074;28;19925;-85
2023/08/07 08:54:31;;;;;;;;;;;;;;;14.52;100.00;101342.75;5034129;28;19932;-82
2023/08/07 08:57:16;;;;;;;;;;;;;;;14.36;100.00;101340.94;5007509;28;20367;-81
2023/08/07 09:00:10;;;;;;;;;;;;;;;14.35;100.00;101344.53;5017385;28;19925;-81
2023/08/07 09:03:01;;;;;;;;;;;;;;;14.43;100.00;101341.44;5033310;28;20403;-82
2023/08/07 09:05:50;;;;;;;;;;;;;;;14.58;100.00;101337.09;5021731;28;20306;-86
2023/08/07 09:08:36;;;;;;;;;;;;;;;14.65;100.00;101345.59;5022626;28;19920;-82
2023/08/07 09:11:22;;;;;;;;;;;;;;;14.73;100.00;101348.72;5033436;28;19920;-81
2023/08/07 09:14:09;;;;;;;;;;;;;;;14.77;100.00;101344.13;5022646;28;19936;-79
2023/08/07 09:16:55;;;;;;;;;;;;;;;14.82;100.00;101351.84;5035021;28;19929;-82
2023/08/07 09:19:41;;;;;;;;;;;;;;;14.92;100.00;101343.25;5024651;28;19925;-80
2023/08/07 09:22:26;;;;;;;;;;;;;;;15.06;100.00;101361.16;5022552;28;19920;-81
2023/08/07 09:25:15;;;;;;;;;;;;;;;15.23;100.00;101362.00;5020762;28;19947;-80
2023/08/07 09:28:06;;;;;;;;;;;;;;;15.38;100.00;101370.06;5024757;28;19929;-83
2023/08/07 09:30:52;;;;;;;;;;;;;;;15.44;100.00;101369.72;5022892;28;19927;-81
2023/08/07 09:33:42;;;;;;;;;;;;;;;15.50;100.00;101368.50;5039261;28;19924;-81
2023/08/07 09:36:29;;;;;;;;;;;;;;;15.47;100.00;101369.53;5023609;28;19924;-86
2023/08/07 09:39:18;;;;;;;;;;;;;;;15.32;100.00;101372.13;5016970;28;19956;-82
2023/08/07 09:42:04;;;;;;;;;;;;;;;15.12;100.00;101386.63;5008552;28;20022;-82
2023/08/07 09:44:50;;;;;;;;;;;;;;;14.93;100.00;101402.78;5025616;28;19925;-83
2023/08/07 09:47:36;;;;;;;;;;;;;;;14.83;100.00;101389.09;5040370;28;19982;-86
2023/08/07 09:50:30;;;;;;;;;;;;;;;14.79;100.00;101401.72;5034835;28;19945;-87
2023/08/07 09:53:16;;;;;;;;;;;;;;;14.75;100.00;101391.28;5031355;28;20191;-88
2023/08/07 09:56:01;;;;;;;;;;;;;;;14.74;100.00;101392.25;5005931;28;20315;-88
2023/08/07 09:58:48;;;;;;;;;;;;;;;14.83;100.00;101394.44;5011008;28;19924;-90
2023/08/07 10:01:36;;;;;;;;;;;;;;;15.11;100.00;101384.03;5021059;28;19925;-91
2023/08/07 10:04:22;;;;;;;;;;;;;;;15.36;100.00;101379.97;5007291;28;19943;-84
2023/08/07 10:07:10;;;;;;;;;;;;;;;15.70;100.00;101394.03;5023807;28;19946;-87
2023/08/07 10:09:56;;;;;;;;;;;;;;;15.82;100.00;101390.66;5024332;28;19924;-92
2023/08/07 10:12:45;;;;;;;;;;;;;;;15.70;100.00;101386.03;5013247;28;21900;-90
2023/08/07 10:15:40;;;;;;;;;;;;;;;15.61;100.00;101390.97;5020021;28;20012;-92
2023/08/07 10:18:29;;;;;;;;;;;;;;;15.61;100.00;101382.94;5010624;28;20202;-92
2023/08/07 10:21:14;;;;;;;;;;;;;;;15.64;100.00;101381.91;5029773;28;19929;-86
2023/08/07 10:24:00;;;;;;;;;;;;;;;15.67;100.00;101396.88;5042969;28;19920;-81
2023/08/07 10:26:47;;;;;;;;;;;;;;;15.84;100.00;101388.75;5027494;28;20471;-79
2023/08/07 10:29:35;;;;;;;;;;;;;;;15.93;100.00;101387.38;5041062;28;20067;-80
2023/08/07 10:32:20;;;;;;;;;;;;;;;15.86;100.00;101389.50;5028288;28;21512;-80
2023/08/07 10:35:08;;;;;;;;;;;;;;;15.91;100.00;101393.72;5027141;28;19921;-83
2023/08/07 10:37:54;;;;;;;;;;;;;;;15.96;100.00;101403.19;5028052;28;19970;-81
2023/08/07 10:41:01;;;;;;;;;;;;;;;16.02;100.00;101396.66;5020479;28;19920;-81
2023/08/07 10:43:55;;;;;;;;;;;;;;;16.15;100.00;101400.31;5042744;28;20321;-80
2023/08/07 10:46:52;;;;;;;;;;;;;;;16.13;100.00;101399.50;5036161;28;19924;-80
2023/08/07 10:49:38;;;;;;;;;;;;;;;16.22;100.00;101405.25;5009874;28;20011;-85
2023/08/07 10:52:24;;;;;;;;;;;;;;;16.27;100.00;101405.84;5027951;28;19983;-86
2023/08/07 10:55:14;;;;;;;;;;;;;;;16.39;100.00;101410.44;5030746;28;20545;-86
2023/08/07 10:57:59;;;;;;;;;;;;;;;16.40;100.00;101404.13;5030795;28;19920;-84
2023/08/07 11:00:45;;;;;;;;;;;;;;;16.45;100.00;101400.31;5045009;28;19924;-85
2023/08/07 11:03:35;;;;;;;;;;;;;;;16.49;100.00;101401.84;5024697;28;20019;-88
2023/08/07 11:06:26;;;;;;;;;;;;;;;16.47;100.00;101418.00;5030187;28;19928;-85
2023/08/07 11:09:11;;;;;;;;;;;;;;;16.33;100.00;101418.81;5026821;28;19925;-92
2023/08/07 11:12:02;;;;;;;;;;;;;;;16.17;100.00;101418.88;5028993;28;19932;-87
2023/08/07 11:14:48;;;;;;;;;;;;;;;16.21;100.00;101423.09;5029622;28;20280;-83
2023/08/07 11:17:36;;;;;;;;;;;;;;;16.24;100.00;101424.72;5039334;28;19928;-85
2023/08/07 11:20:22;;;;;;;;;;;;;;;16.23;100.00;101415.84;5026315;28;20040;-85
2023/08/07 11:23:08;;;;;;;;;;;;;;;16.31;100.00;101417.19;5013467;28;20395;-92
2023/08/07 11:25:53;;;;;;;;;;;;;;;16.42;100.00;101423.63;5008470;28;19964;-82
2023/08/07 11:28:42;;;;;;;;;;;;;;;16.50;100.00;101411.59;5022956;28;19927;-84
2023/08/07 11:31:28;;;;;;;;;;;;;;;16.46;100.00;101418.06;5018887;28;20368;-88
2023/08/07 11:34:13;;;;;;;;;;;;;;;16.30;100.00;101435.06;5027848;28;20066;-87
2023/08/07 11:37:00;;;;;;;;;;;;;;;16.10;100.00;101441.56;5042373;28;19924;-89
2023/08/07 11:39:46;;;;;;;;;;;;;;;15.92;100.00;101455.06;5023013;28;19928;-85
2023/08/07 11:42:32;;;;;;;;;;;;;;;15.69;100.00;101454.53;5038457;28;19935;-91
2023/08/07 11:45:18;;;;;;;;;;;;;;;15.38;100.00;101461.66;5013010;28;20710;-83
2023/08/07 11:48:04;;;;;;;;;;;;;;;15.15;100.00;101462.91;5022528;28;19950;-88
2023/08/07 11:50:50;;;;;;;;;;;;;;;15.01;100.00;101450.34;5025676;28;19998;-86
2023/08/07 11:53:36;;;;;;;;;;;;;;;15.03;100.00;101454.63;5012596;28;20039;-83
2023/08/07 11:56:22;;;;;;;;;;;;;;;15.19;100.00;101441.31;5009805;28;19935;-83
2023/08/07 11:59:08;;;;;;;;;;;;;;;15.44;100.00;101433.75;5040441;28;20584;-91
2023/08/07 12:01:53;;;;;;;;;;;;;;;15.59;100.00;101427.53;5023741;28;19967;-82
2023/08/07 12:04:42;;;;;;;;;;;;;;;15.73;100.00;101440.09;5023415;28;19928;-83
2023/08/07 12:07:29;;;;;;;;;;;;;;;15.78;100.00;101439.81;5021821;28;19951;-84
2023/08/07 12:10:15;;;;;;;;;;;;;;;15.78;100.00;101452.28;5009061;28;19924;-85
2023/08/07 12:13:04;;;;;;;;;;;;;;;15.60;100.00;101439.91;5026426;28;20002;-86
2023/08/07 12:15:51;;;;;;;;;;;;;;;15.47;100.00;101442.44;5034789;28;19924;-87
2023/08/07 12:18:38;;;;;;;;;;;;;;;15.40;100.00;101442.84;5024411;28;20113;-87
2023/08/07 12:21:24;;;;;;;;;;;;;;;15.37;100.00;101438.59;5018018;28;19925;-77
2023/08/07 12:24:10;;;;;;;;;;;;;;;15.49;100.00;101439.69;5013808;28;19925;-79
2023/08/07 12:26:55;;;;;;;;;;;;;;;15.61;100.00;101431.00;5032659;28;19924;-83
2023/08/07 12:29:43;;;;;;;;;;;;;;;15.77;100.00;101440.78;5004389;28;19924;-80
2023/08/07 12:32:30;;;;;;;;;;;;;;;15.87;100.00;101449.09;5032791;28;20006;-83
2023/08/07 12:35:17;;;;;;;;;;;;;;;15.88;100.00;101432.13;5038215;28;20019;-83
2023/08/07 12:38:06;;;;;;;;;;;;;;;15.84;100.00;101447.47;5010564;28;20411;-80
2023/08/07 12:40:58;;;;;;;;;;;;;;;15.80;100.00;101453.94;5035774;28;19920;-81
2023/08/07 12:43:43;;;;;;;;;;;;;;;15.88;100.00;101448.16;5021554;28;19939;-83
2023/08/07 12:46:29;;;;;;;;;;;;;;;16.00;100.00;101454.59;5022418;28;20537;-80
2023/08/07 12:49:15;;;;;;;;;;;;;;;16.11;100.00;101446.84;5019708;28;19925;-80
2023/08/07 12:52:07;;;;;;;;;;;;;;;16.26;100.00;101449.53;5035418;28;19916;-80
2023/08/07 12:54:53;;;;;;;;;;;;;;;16.40;100.00;101449.56;5036320;28;19967;-81
2023/08/07 12:57:43;;;;;;;;;;;;;;;16.51;100.00;101442.72;5038565;28;19982;-79
2023/08/07 13:00:31;;;;;;;;;;;;;;;16.66;100.00;101430.19;5024387;28;20033;-81
2023/08/07 13:03:17;;;;;;;;;;;;;;;16.87;100.00;101435.16;5035060;28;19927;-81
2023/08/07 13:06:05;;;;;;;;;;;;;;;16.97;100.00;101425.59;5011286;28;19924;-83
2023/08/07 13:08:51;;;;;;;;;;;;;;;17.18;100.00;101438.59;5020355;28;20089;-79
2023/08/07 13:11:37;;;;;;;;;;;;;;;17.49;100.00;101453.53;5040132;28;20020;-79
2023/08/07 13:14:22;;;;;;;;;;;;;;;17.50;100.00;101457.91;5027532;28;19920;-78
2023/08/07 13:17:10;;;;;;;;;;;;;;;17.47;100.00;101449.22;5042712;28;19928;-77
2023/08/07 13:19:56;;;;;;;;;;;;;;;17.37;100.00;101462.34;5027289;28;20509;-77
2023/08/07 13:22:45;;;;;;;;;;;;;;;17.18;100.00;101468.03;5044324;28;20141;-76
2023/08/07 13:25:31;;;;;;;;;;;;;;;16.94;100.00;101458.75;5039530;28;20013;-77
2023/08/07 13:28:19;;;;;;;;;;;;;;;17.01;100.00;101453.88;5041794;28;19935;-75
2023/08/07 13:31:05;;;;;;;;;;;;;;;17.14;100.00;101456.66;5048349;28;19928;-77
2023/08/07 13:33:54;;;;;;;;;;;;;;;17.10;100.00;101471.19;5047954;28;21176;-78
2023/08/07 13:36:42;;;;;;;;;;;;;;;16.94;100.00;101464.09;5042573;28;20094;-78
2023/08/07 13:39:30;;;;;;;;;;;;;;;16.78;100.00;101479.38;5046214;28;21772;-77
2023/08/07 13:42:17;;;;;;;;;;;;;;;16.70;100.00;101471.84;5046320;28;19932;-81
2023/08/07 13:45:03;;;;;;;;;;;;;;;16.73;100.00;101471.66;5016345;28;19907;-79
2023/08/07 13:47:48;;;;;;;;;;;;;;;16.62;100.00;101474.97;5042728;28;20378;-75
2023/08/07 13:50:34;;;;;;;;;;;;;;;16.49;100.00;101479.34;5027862;28;19924;-79
2023/08/07 13:53:20;;;;;;;;;;;;;;;16.56;99.90;101480.69;5022500;28;19924;-77
2023/08/07 13:56:08;;;;;;;;;;;;;;;16.64;100.00;101482.91;5036869;28;20344;-78
2023/08/07 13:58:55;;;;;;;;;;;;;;;16.70;99.84;101483.41;5024582;28;21094;-77
2023/08/07 14:01:51;;;;;;;;;;;;;;;16.82;100.00;101486.25;5038728;28;21382;-78
2023/08/07 14:04:37;;;;;;;;;;;;;;;17.02;100.00;101493.09;5023350;28;20027;-78
2023/08/07 14:07:24;;;;;;;;;;;;;;;17.22;100.00;101507.00;5019702;28;19967;-78